Time;durP1;ratioP1;P1;durP2;ratioP2;P2;SDS_P1;SDS_P2;PMS_P1;PMS_P2;Temp;Humidity;BMP_temperature;BMP_pressure;BME280_temperature;BME280_humidity;BME280_pressure;Samples;Min_cycle;Max_cycle;Signal;HPM_P1;HPM_P2
2022/09/16 00:00:12;;;;;;;4.90;3.83;;;;;;;21.82;51.40;94373.56;5075092;28;20186;-73
2022/09/16 00:02:39;;;;;;;7.75;4.32;;;;;;;21.76;51.52;94375.31;5075947;28;20181;-73
2022/09/16 00:05:06;;;;;;;10.52;5.22;;;;;;;21.71;51.71;94375.84;5075491;28;20201;-74
2022/09/16 00:07:33;;;;;;;7.78;4.85;;;;;;;21.67;52.15;94371.56;5075077;28;20204;-74
2022/09/16 00:09:59;;;;;;;7.85;4.93;;;;;;;21.67;51.88;94365.94;5075074;28;20200;-74
2022/09/16 00:12:28;;;;;;;7.57;4.70;;;;;;;21.68;51.55;94378.75;5074775;28;20224;-73
2022/09/16 00:14:55;;;;;;;8.25;5.38;;;;;;;21.67;51.69;94385.59;5075144;28;20193;-73
2022/09/16 00:17:23;;;;;;;7.32;5.22;;;;;;;21.65;51.65;94385.28;5074676;28;20208;-73
2022/09/16 00:19:50;;;;;;;9.40;5.88;;;;;;;21.60;52.13;94389.38;5074953;28;20250;-73
2022/09/16 00:22:18;;;;;;;12.38;6.15;;;;;;;21.52;52.22;94394.38;5074527;28;20196;-73
2022/09/16 00:24:47;;;;;;;9.00;5.90;;;;;;;21.46;52.65;94382.13;5074448;28;20200;-73
2022/09/16 00:27:14;;;;;;;9.52;5.10;;;;;;;21.41;52.62;94379.84;5075381;28;20592;-73
2022/09/16 00:29:42;;;;;;;9.20;4.50;;;;;;;21.37;52.61;94367.94;5074952;28;20267;-73
2022/09/16 00:32:09;;;;;;;9.48;4.70;;;;;;;21.35;52.23;94376.00;5074076;28;20221;-73
2022/09/16 00:34:36;;;;;;;7.55;4.78;;;;;;;21.34;52.45;94363.19;5074341;28;20212;-73
2022/09/16 00:37:03;;;;;;;9.80;4.95;;;;;;;21.35;52.15;94362.78;5075204;28;20540;-73
2022/09/16 00:39:29;;;;;;;6.80;4.03;;;;;;;21.34;52.52;94368.81;5075511;28;20185;-73
2022/09/16 00:41:56;;;;;;;5.78;3.83;;;;;;;21.33;52.03;94381.22;5075461;28;20181;-73
2022/09/16 00:44:54;;;;;;;6.55;3.47;;;;;;;21.33;51.69;94373.63;5075190;28;20617;-73
2022/09/16 00:47:24;;;;;;;7.00;3.90;;;;;;;21.34;51.95;94369.59;5075444;28;20190;-73
2022/09/16 00:49:52;;;;;;;5.50;3.55;;;;;;;21.33;52.21;94375.63;5074489;28;20197;-72
2022/09/16 00:52:19;;;;;;;9.38;4.63;;;;;;;21.29;52.64;94374.94;5074974;28;20664;-71
2022/09/16 00:54:46;;;;;;;8.10;4.57;;;;;;;21.27;52.71;94378.16;5075193;28;20185;-71
2022/09/16 00:57:14;;;;;;;8.85;4.68;;;;;;;21.25;53.29;94382.66;5074311;28;20197;-71
2022/09/16 00:59:43;;;;;;;6.55;4.68;;;;;;;21.20;53.01;94381.13;5074232;28;20201;-71
2022/09/16 01:02:14;;;;;;;6.43;4.53;;;;;;;21.15;53.59;94374.03;5075295;28;20192;-74
2022/09/16 01:04:45;;;;;;;8.55;4.57;;;;;;;21.15;52.96;94387.28;5074301;28;20200;-73
2022/09/16 01:07:12;;;;;;;9.10;4.68;;;;;;;21.12;53.42;94376.94;5074525;28;20211;-73
2022/09/16 01:09:39;;;;;;;9.20;4.20;;;;;;;21.07;53.29;94385.88;5075416;28;20292;-73
2022/09/16 01:12:06;;;;;;;6.47;4.18;;;;;;;21.06;53.16;94387.91;5074949;28;20238;-73
2022/09/16 01:17:26;;;;;;;5.00;3.70;;;;;;;21.12;52.61;94385.34;5074803;28;20190;-73
2022/09/16 01:20:08;;;;;;;6.90;3.55;;;;;;;21.09;53.26;94386.22;5075076;28;20189;-73
2022/09/16 01:22:46;;;;;;;6.72;4.75;;;;;;;21.04;53.69;94393.16;5074721;28;20198;-73
2022/09/16 01:25:21;;;;;;;9.05;5.57;;;;;;;21.01;53.68;94391.22;5074625;28;20193;-73
2022/09/16 01:28:26;;;;;;;16.92;9.20;;;;;;;20.95;53.40;94384.53;5074246;28;20212;-73
2022/09/16 01:31:01;;;;;;;16.63;8.77;;;;;;;20.96;53.07;94390.97;5028209;28;20209;-73
2022/09/16 01:33:36;;;;;;;17.38;8.50;;;;;;;20.94;53.64;94388.56;5073952;28;20204;-73
2022/09/16 01:36:26;;;;;;;16.52;7.68;;;;;;;20.98;53.36;94385.69;5074014;28;20199;-73
2022/09/16 01:39:06;;;;;;;16.55;9.50;;;;;;;20.98;53.25;94383.66;5074012;28;20211;-73
2022/09/16 01:41:41;;;;;;;8.07;5.68;;;;;;;20.99;52.82;94381.66;5074763;28;20189;-73
2022/09/16 01:44:15;;;;;;;9.65;4.50;;;;;;;21.01;52.88;94377.19;5074245;28;20192;-73
2022/09/16 01:46:47;;;;;;;8.38;4.03;;;;;;;21.05;52.41;94379.91;5074829;28;20185;-73
2022/09/16 01:49:18;;;;;;;6.85;3.50;;;;;;;21.08;52.17;94377.03;5074794;28;20189;-73
2022/09/16 01:51:50;;;;;;;5.15;3.30;;;;;;;21.10;52.31;94373.81;5074636;28;20272;-73
2022/09/16 01:54:21;;;;;;;4.93;3.00;;;;;;;21.10;52.24;94371.78;5074260;28;20266;-74
2022/09/16 01:56:53;;;;;;;7.57;3.38;;;;;;;21.10;51.77;94371.00;5077755;28;20259;-73
2022/09/16 01:59:23;;;;;;;6.35;3.30;;;;;;;21.09;51.92;94367.38;5078050;28;20189;-73
2022/09/16 02:01:55;;;;;;;4.40;2.95;;;;;;;21.11;52.22;94364.94;5077473;28;20212;-73
2022/09/16 02:04:24;;;;;;;4.22;2.83;;;;;;;21.09;52.13;94367.38;5077041;28;20197;-73
2022/09/16 02:06:52;;;;;;;5.45;3.17;;;;;;;21.07;52.32;94363.47;5077531;28;20208;-73
2022/09/16 02:09:21;;;;;;;6.38;3.95;;;;;;;21.06;53.15;94361.84;5077395;28;20189;-73
2022/09/16 02:11:50;;;;;;;8.52;4.50;;;;;;;21.02;52.77;94359.13;5077832;28;20201;-73
2022/09/16 02:14:20;;;;;;;8.85;4.80;;;;;;;20.99;53.07;94367.63;5076712;28;20299;-74
2022/09/16 02:16:52;;;;;;;9.05;4.55;;;;;;;20.99;52.60;94373.25;5077857;28;20177;-74
2022/09/16 02:19:21;;;;;;;7.53;4.10;;;;;;;20.97;52.55;94370.88;5077774;28;20648;-74
2022/09/16 02:21:50;;;;;;;8.93;4.65;;;;;;;20.96;52.46;94360.13;5077736;28;20202;-74
2022/09/16 02:24:18;;;;;;;8.10;3.80;;;;;;;20.95;52.46;94364.13;5077030;28;20583;-73
2022/09/16 02:26:50;;;;;;;7.63;4.18;;;;;;;20.92;52.74;94369.41;5077932;28;20197;-73
2022/09/16 02:29:21;;;;;;;7.22;3.58;;;;;;;20.91;52.88;94364.22;5076876;28;20189;-73
2022/09/16 02:31:49;;;;;;;7.32;3.63;;;;;;;20.92;52.43;94377.03;5076929;28;20637;-73
2022/09/16 02:34:19;;;;;;;5.82;3.40;;;;;;;20.93;52.53;94381.41;5077421;28;20185;-73
2022/09/16 02:36:51;;;;;;;7.10;3.85;;;;;;;20.92;52.90;94379.84;5060636;28;20204;-73
2022/09/16 02:39:21;;;;;;;6.70;3.33;;;;;;;20.91;52.89;94381.03;5078143;28;20193;-73
2022/09/16 02:41:48;;;;;;;6.65;3.25;;;;;;;20.89;53.02;94367.47;5077728;28;20185;-73
2022/09/16 02:44:16;;;;;;;8.07;3.05;;;;;;;20.87;52.79;94389.53;5076639;28;20197;-73
2022/09/16 02:46:51;;;;;;;6.40;3.20;;;;;;;20.85;53.14;94371.59;5077637;28;20189;-72
2022/09/16 02:49:26;;;;;;;4.28;2.92;;;;;;;20.83;53.06;94377.63;5077639;28;20189;-72
2022/09/16 02:52:00;;;;;;;3.97;3.03;;;;;;;20.83;52.61;94380.41;5076633;28;20209;-74
2022/09/16 02:54:36;;;;;;;4.40;2.85;;;;;;;20.83;52.72;94380.41;5077091;28;20174;-74
2022/09/16 02:57:03;;;;;;;3.70;2.83;;;;;;;20.83;52.61;94400.03;5077136;28;20239;-74
2022/09/16 02:59:30;;;;;;;5.20;2.85;;;;;;;20.84;52.59;94403.63;5077418;28;20260;-73
2022/09/16 03:01:59;;;;;;;5.07;3.17;;;;;;;20.84;52.68;94406.44;5077247;28;20193;-73
2022/09/16 03:04:28;;;;;;;4.80;2.78;;;;;;;20.84;52.60;94407.25;5076349;28;20197;-71
2022/09/16 03:06:54;;;;;;;4.13;2.70;;;;;;;20.84;52.72;94398.00;5075947;28;20196;-71
2022/09/16 03:09:23;;;;;;;6.95;3.53;;;;;;;20.84;53.18;94409.22;5077323;28;20181;-71
2022/09/16 03:12:14;;;;;;;6.15;2.85;;;;;;;20.82;53.71;94420.09;5076091;28;20588;-71
2022/09/16 03:14:54;;;;;;;4.22;2.92;;;;;;;20.81;53.71;94415.72;5075595;28;20229;-71
2022/09/16 03:17:31;;;;;;;3.92;2.90;;;;;;;20.82;53.97;94423.69;5076226;28;20197;-71
2022/09/16 03:20:05;;;;;;;5.47;2.75;;;;;;;20.82;53.90;94428.50;5059347;28;20208;-71
2022/09/16 03:22:42;;;;;;;4.13;2.97;;;;;;;20.85;53.60;94436.84;5076050;28;20188;-71
2022/09/16 03:25:14;;;;;;;5.80;3.30;;;;;;;20.86;53.84;94438.41;5076509;28;20185;-71
2022/09/16 03:27:44;;;;;;;5.85;3.75;;;;;;;20.86;53.59;94423.59;5075870;28;20197;-71
2022/09/16 03:30:11;;;;;;;5.65;3.53;;;;;;;20.86;53.97;94406.78;5076262;28;20182;-71
2022/09/16 03:32:43;;;;;;;7.35;3.53;;;;;;;20.86;53.80;94401.19;5076699;28;20217;-71
2022/09/16 03:35:15;;;;;;;6.35;3.50;;;;;;;20.86;54.67;94407.56;5075963;28;20193;-71
2022/09/16 03:37:44;;;;;;;8.45;3.58;;;;;;;20.83;54.72;94404.84;5075668;28;20190;-72
2022/09/16 03:40:13;;;;;;;6.15;3.60;;;;;;;20.77;54.90;94396.19;5076131;28;20543;-71
2022/09/16 03:42:40;;;;;;;5.50;3.53;;;;;;;20.75;54.72;94401.44;5076393;28;20185;-71
2022/09/16 03:45:08;;;;;;;6.15;3.35;;;;;;;20.73;55.05;94384.25;5076433;28;20606;-73
2022/09/16 03:47:35;;;;;;;5.93;3.90;;;;;;;20.71;55.34;94377.53;5075497;28;20208;-73
2022/09/16 03:50:02;;;;;;;9.73;4.47;;;;;;;20.68;55.21;94379.19;5076315;28;20196;-72
2022/09/16 03:52:30;;;;;;;5.35;4.25;;;;;;;20.63;55.38;94368.50;5075142;28;20223;-72
2022/09/16 03:54:57;;;;;;;7.40;3.92;;;;;;;20.62;54.66;94373.28;5075413;28;20216;-73
2022/09/16 03:57:24;;;;;;;8.27;3.70;;;;;;;20.67;54.49;94375.59;5076327;28;20197;-73
2022/09/16 03:59:50;;;;;;;7.95;3.55;;;;;;;20.71;54.02;94383.13;5075069;28;20212;-73
2022/09/16 04:02:17;;;;;;;8.45;4.32;;;;;;;20.73;53.93;94389.84;5075095;28;20540;-73
2022/09/16 04:04:44;;;;;;;7.28;3.50;;;;;;;20.73;54.16;94398.25;5075411;28;20197;-73
2022/09/16 04:07:11;;;;;;;5.07;3.42;;;;;;;20.77;53.80;94403.78;5076105;28;20189;-72
2022/09/16 04:09:39;;;;;;;6.35;3.25;;;;;;;20.78;53.38;94417.38;5075211;28;20208;-72
2022/09/16 04:12:06;;;;;;;7.05;3.40;;;;;;;20.77;53.41;94427.00;5075855;28;20327;-72
2022/09/16 04:14:33;;;;;;;6.90;3.40;;;;;;;20.79;53.09;94423.75;5074762;28;20656;-72
2022/09/16 04:17:00;;;;;;;7.28;3.60;;;;;;;20.80;52.75;94431.72;5074532;28;20189;-72
2022/09/16 04:19:27;;;;;;;6.28;3.45;;;;;;;20.84;53.21;94426.03;5075788;28;20189;-72
2022/09/16 04:21:53;;;;;;;3.75;3.28;;;;;;;20.83;52.75;94435.69;5074861;28;20193;-72
2022/09/16 04:24:20;;;;;;;4.78;3.60;;;;;;;20.85;52.66;94438.84;5074943;28;20197;-72
2022/09/16 04:26:48;;;;;;;6.22;3.92;;;;;;;20.90;52.19;94447.53;5074839;28;20193;-72
2022/09/16 04:29:16;;;;;;;6.53;3.28;;;;;;;20.94;51.84;94438.25;5074832;28;20212;-72
2022/09/16 04:31:43;;;;;;;9.45;4.85;;;;;;;20.97;52.05;94445.78;5074733;28;20236;-73
2022/09/16 04:34:10;;;;;;;8.07;4.90;;;;;;;21.00;51.88;94442.13;5075510;28;20216;-72
2022/09/16 04:36:38;;;;;;;6.18;4.07;;;;;;;21.01;51.72;94443.69;5075056;28;20254;-72
2022/09/16 04:39:05;;;;;;;7.85;4.70;;;;;;;21.03;52.00;94439.22;5075222;28;20258;-72
2022/09/16 04:41:32;;;;;;;8.15;4.00;;;;;;;21.06;51.69;94440.34;5074749;28;20197;-72
2022/09/16 04:44:02;;;;;;;7.85;4.22;;;;;;;21.07;52.00;94441.97;5074522;28;20208;-73
2022/09/16 04:46:31;;;;;;;6.45;3.97;;;;;;;21.02;52.80;94448.84;5074061;28;20205;-72
2022/09/16 04:48:59;;;;;;;10.48;5.00;;;;;;;20.98;53.01;94450.94;5074538;28;20201;-72
2022/09/16 04:51:27;;;;;;;7.75;4.57;;;;;;;20.95;53.62;94454.63;5075562;28;20193;-72
2022/09/16 04:53:54;;;;;;;10.40;5.15;;;;;;;20.91;54.16;94457.53;5074335;28;20239;-72
2022/09/16 04:56:24;;;;;;;8.25;5.38;;;;;;;20.86;54.26;94452.41;5074412;28;20605;-73
2022/09/16 04:58:52;;;;;;;10.32;5.90;;;;;;;20.84;54.48;94462.47;5075591;28;20200;-74
2022/09/16 05:01:22;;;;;;;9.27;4.43;;;;;;;20.80;54.58;94451.34;5075263;28;20177;-73
2022/09/16 05:03:51;;;;;;;8.95;3.92;;;;;;;20.73;54.84;94439.50;5073999;28;20204;-73
2022/09/16 05:06:20;;;;;;;7.50;4.20;;;;;;;20.70;54.39;94443.97;5074863;28;20267;-73
2022/09/16 05:08:46;;;;;;;7.60;4.53;;;;;;;20.73;54.57;94451.50;5075156;28;20204;-73
2022/09/16 05:11:15;;;;;;;7.82;3.97;;;;;;;20.75;53.78;94443.47;5074266;28;20197;-73
2022/09/16 05:13:42;;;;;;;8.02;3.83;;;;;;;20.77;53.48;94440.22;5074158;28;20233;-73
2022/09/16 05:16:10;;;;;;;7.60;3.97;;;;;;;20.79;53.46;94440.59;5075109;28;20204;-73
2022/09/16 05:18:40;;;;;;;8.05;4.13;;;;;;;20.82;53.51;94436.91;5074229;28;20204;-73
2022/09/16 05:21:08;;;;;;;10.07;4.25;;;;;;;20.85;54.30;94434.03;5074226;28;20197;-74
2022/09/16 05:23:36;;;;;;;13.27;4.93;;;;;;;20.86;54.78;94430.00;5073762;28;20193;-73
2022/09/16 05:26:05;;;;;;;10.75;4.47;;;;;;;20.88;54.42;94426.78;5074053;28;20208;-72
2022/09/16 05:28:31;;;;;;;12.88;5.32;;;;;;;20.92;54.23;94435.88;5074692;28;20193;-73
2022/09/16 05:31:08;;;;;;;15.70;5.07;;;;;;;20.97;54.50;94440.97;5077468;28;20192;-73
2022/09/16 05:33:35;;;;;;;14.18;5.05;;;;;;;20.98;54.99;94427.75;5077720;28;20208;-73
2022/09/16 05:36:06;;;;;;;11.60;4.95;;;;;;;20.99;55.00;94427.31;5078992;28;20219;-73
2022/09/16 05:38:33;;;;;;;11.02;4.50;;;;;;;21.00;54.67;94420.47;5078671;28;20548;-73
2022/09/16 05:40:59;;;;;;;8.98;4.53;;;;;;;21.00;55.23;94408.47;5079171;28;20177;-73
2022/09/16 05:43:26;;;;;;;9.90;4.88;;;;;;;20.99;54.85;94407.69;5079062;28;20185;-74
2022/09/16 05:45:53;;;;;;;11.93;4.80;;;;;;;21.01;55.49;94404.44;5077622;28;20203;-74
2022/09/16 05:48:20;;;;;;;11.73;4.97;;;;;;;21.05;55.36;94413.56;5078539;28;20203;-73
2022/09/16 05:50:51;;;;;;;10.20;4.80;;;;;;;21.07;55.54;94413.91;5079047;28;20217;-74
2022/09/16 05:53:20;;;;;;;8.38;5.05;;;;;;;21.13;54.54;94421.38;5078228;28;20664;-73
2022/09/16 05:55:55;;;;;;;7.88;4.03;;;;;;;21.20;53.76;94422.41;5077625;28;20201;-74
2022/09/16 05:58:22;;;;;;;13.02;4.85;;;;;;;21.23;55.23;94421.53;5077522;28;20538;-74
2022/09/16 06:00:49;;;;;;;14.57;5.82;;;;;;;21.27;55.84;94427.84;5077451;28;20307;-74
2022/09/16 06:03:16;;;;;;;12.30;5.95;;;;;;;21.29;56.27;94425.41;5077265;28;20224;-74
2022/09/16 06:05:42;;;;;;;12.07;4.85;;;;;;;21.33;56.63;94429.72;5078362;28;20243;-74
2022/09/16 06:08:09;;;;;;;15.02;5.93;;;;;;;21.35;56.49;94413.25;5078346;28;20200;-73
2022/09/16 06:10:39;;;;;;;10.18;4.95;;;;;;;21.40;55.51;94423.16;5078231;28;20237;-74
2022/09/16 06:13:06;;;;;;;7.78;4.30;;;;;;;21.45;54.94;94424.63;5077901;28;20233;-73
2022/09/16 06:15:33;;;;;;;5.70;3.78;;;;;;;21.47;54.57;94425.78;5077618;28;20193;-73
2022/09/16 06:17:59;;;;;;;9.98;3.47;;;;;;;21.49;53.54;94422.53;5077785;28;20186;-73
2022/09/16 06:20:26;;;;;;;5.47;3.30;;;;;;;21.50;51.84;94424.13;5077190;28;20193;-74
2022/09/16 06:22:53;;;;;;;6.97;3.50;;;;;;;21.51;52.13;94418.06;5078009;28;20554;-74
2022/09/16 06:25:19;;;;;;;5.30;2.80;;;;;;;21.52;52.39;94405.59;5077835;28;20196;-74
2022/09/16 06:27:48;;;;;;;5.85;2.80;;;;;;;21.56;52.00;94408.31;5077773;28;20184;-74
2022/09/16 06:30:15;;;;;;;8.13;3.25;;;;;;;21.58;51.63;94408.69;5077834;28;20181;-74
2022/09/16 06:32:42;;;;;;;5.88;2.83;;;;;;;21.63;51.76;94410.94;5077790;28;20189;-75
2022/09/16 06:35:09;;;;;;;7.80;3.15;;;;;;;21.64;51.65;94409.72;5077022;28;20201;-73
2022/09/16 06:37:36;;;;;;;7.03;2.92;;;;;;;21.65;50.99;94411.31;5076909;28;20221;-74
2022/09/16 06:40:03;;;;;;;10.55;3.15;;;;;;;21.67;51.59;94419.28;5077165;28;20185;-74
2022/09/16 06:42:33;;;;;;;7.95;3.20;;;;;;;21.68;51.10;94421.66;5076871;28;20250;-74
2022/09/16 06:45:02;;;;;;;5.00;2.55;;;;;;;21.70;50.61;94424.78;5077861;28;20189;-74
2022/09/16 06:47:32;;;;;;;4.57;2.80;;;;;;;21.72;50.97;94422.34;5076776;28;20199;-73
2022/09/16 06:49:59;;;;;;;4.45;2.53;;;;;;;21.74;50.50;94430.31;5077516;28;20208;-73
2022/09/16 06:52:25;;;;;;;7.60;3.58;;;;;;;21.76;50.26;94417.44;5076613;28;20201;-73
2022/09/16 06:54:52;;;;;;;6.75;3.63;;;;;;;21.79;50.14;94419.34;5077495;28;20212;-73
2022/09/16 06:57:21;;;;;;;7.07;3.17;;;;;;;21.83;50.25;94419.25;5077566;28;20182;-73
2022/09/16 06:59:48;;;;;;;5.65;3.22;;;;;;;21.86;49.93;94424.00;5076153;28;20207;-73
2022/09/16 07:02:16;;;;;;;5.00;2.90;;;;;;;21.90;50.05;94424.69;5076418;28;20197;-73
2022/09/16 07:04:43;;;;;;;6.13;3.25;;;;;;;21.95;50.18;94418.53;5076327;28;20193;-74
2022/09/16 07:07:10;;;;;;;6.63;3.33;;;;;;;21.98;50.13;94419.66;5076400;28;20204;-73
2022/09/16 07:09:37;;;;;;;4.43;3.28;;;;;;;22.03;50.50;94414.28;5076385;28;20209;-73
2022/09/16 07:12:04;;;;;;;5.07;3.30;;;;;;;22.13;50.74;94417.25;5076173;28;20201;-73
2022/09/16 07:14:31;;;;;;;6.60;4.00;;;;;;;22.19;50.22;94423.94;5076661;28;20228;-73
2022/09/16 07:16:59;;;;;;;6.97;3.38;;;;;;;22.25;50.43;94427.75;5077049;28;20233;-73
2022/09/16 07:19:27;;;;;;;7.72;4.00;;;;;;;22.29;49.75;94422.81;5075820;28;20256;-74
2022/09/16 07:21:54;;;;;;;11.10;4.90;;;;;;;22.30;49.47;94416.00;5076159;28;20197;-73
2022/09/16 07:24:21;;;;;;;9.10;3.85;;;;;;;22.35;49.56;94409.81;5076455;28;20181;-73
2022/09/16 07:26:48;;;;;;;4.45;3.25;;;;;;;22.41;49.53;94415.69;5076921;28;20177;-74
2022/09/16 07:29:16;;;;;;;5.85;3.40;;;;;;;22.46;49.95;94413.09;5076277;28;20239;-74
2022/09/16 07:31:43;;;;;;;6.32;3.38;;;;;;;22.52;49.86;94416.16;5075990;28;20650;-72
2022/09/16 07:34:11;;;;;;;7.25;3.15;;;;;;;22.59;49.51;94421.56;5075767;28;20217;-73
2022/09/16 07:36:41;;;;;;;5.40;3.05;;;;;;;22.65;49.39;94411.34;5076126;28;20205;-74
2022/09/16 07:39:08;;;;;;;6.07;3.05;;;;;;;22.70;49.60;94399.56;5076568;28;20181;-74
2022/09/16 07:41:38;;;;;;;5.93;3.42;;;;;;;22.83;48.51;94391.91;5075444;28;20605;-75
2022/09/16 07:44:05;;;;;;;6.32;3.30;;;;;;;22.89;48.08;94388.56;5075308;28;20184;-73
2022/09/16 07:46:34;;;;;;;5.85;4.07;;;;;;;22.97;47.83;94387.91;5076471;28;20224;-74
2022/09/16 07:49:02;;;;;;;7.15;3.97;;;;;;;23.01;48.01;94385.75;5076531;28;20197;-74
2022/09/16 07:51:30;;;;;;;6.00;3.30;;;;;;;23.09;47.43;94379.91;5075952;28;20192;-74
2022/09/16 07:54:01;;;;;;;6.28;3.80;;;;;;;23.17;47.57;94384.09;5075812;28;20224;-74
2022/09/16 07:56:29;;;;;;;5.68;3.33;;;;;;;23.29;47.23;94386.09;5075597;28;20193;-74
2022/09/16 07:58:56;;;;;;;4.57;3.20;;;;;;;23.33;47.58;94378.31;5076355;28;20185;-74
2022/09/16 08:01:23;;;;;;;4.78;3.25;;;;;;;23.39;47.04;94384.94;5076039;28;20570;-74
2022/09/16 08:03:50;;;;;;;5.88;3.13;;;;;;;23.41;47.42;94381.69;5076279;28;20196;-73
2022/09/16 08:06:18;;;;;;;5.28;2.80;;;;;;;23.44;47.24;94377.97;5076057;28;20192;-74
2022/09/16 08:08:46;;;;;;;6.15;2.88;;;;;;;23.44;47.09;94372.31;5075006;28;20193;-73
2022/09/16 08:11:15;;;;;;;7.65;3.53;;;;;;;23.49;46.58;94378.19;5075466;28;20208;-73
2022/09/16 08:13:42;;;;;;;6.47;2.97;;;;;;;23.55;46.43;94364.31;5075865;28;20258;-73
2022/09/16 08:16:12;;;;;;;4.32;2.47;;;;;;;23.58;47.07;94366.22;5076018;28;20185;-72
2022/09/16 08:18:39;;;;;;;4.47;3.08;;;;;;;23.70;47.41;94365.41;5075892;28;20231;-73
2022/09/16 08:21:07;;;;;;;7.97;2.88;;;;;;;23.80;46.36;94360.66;5075544;28;20200;-73
2022/09/16 08:23:33;;;;;;;4.55;3.28;;;;;;;23.92;45.66;94359.03;5075098;28;20224;-74
2022/09/16 08:26:01;;;;;;;6.13;3.40;;;;;;;23.93;45.82;94358.59;5075814;28;20220;-73
2022/09/16 08:28:30;;;;;;;7.47;3.53;;;;;;;23.92;45.86;94359.03;5075449;28;20258;-73
2022/09/16 08:30:59;;;;;;;4.88;3.25;;;;;;;23.92;45.15;94353.41;5074498;28;20205;-74
2022/09/16 08:33:26;;;;;;;7.43;3.08;;;;;;;23.91;45.98;94354.66;5075707;28;20216;-74
2022/09/16 08:35:59;;;;;;;6.32;3.15;;;;;;;23.90;45.28;94347.47;5075349;28;20601;-74
2022/09/16 08:38:26;;;;;;;7.72;2.80;;;;;;;23.88;45.59;94347.13;5074354;28;20213;-74
2022/09/16 08:40:56;;;;;;;9.35;3.20;;;;;;;23.84;45.21;94347.25;5074772;28;20196;-74
2022/09/16 08:43:26;;;;;;;5.60;3.00;;;;;;;23.80;46.47;94340.94;5074166;28;20682;-74
2022/09/16 08:45:57;;;;;;;5.53;3.50;;;;;;;23.77;45.83;94339.81;5075495;28;20197;-72
2022/09/16 08:48:30;;;;;;;6.32;3.30;;;;;;;23.76;47.07;94343.13;5074483;28;20205;-72
2022/09/16 08:50:59;;;;;;;6.90;3.03;;;;;;;23.73;47.07;94336.34;5074540;28;20203;-72
2022/09/16 08:53:33;;;;;;;6.30;3.15;;;;;;;23.70;47.03;94333.66;5075520;28;20196;-71
2022/09/16 08:56:03;;;;;;;8.10;3.58;;;;;;;23.67;46.41;94341.00;5074218;28;20213;-72
2022/09/16 08:58:34;;;;;;;6.72;3.40;;;;;;;23.65;47.18;94345.50;5075338;28;20572;-72
2022/09/16 09:01:05;;;;;;;7.97;3.30;;;;;;;23.62;46.93;94341.53;5074082;28;20200;-72
2022/09/16 09:03:39;;;;;;;6.63;3.30;;;;;;;23.61;46.60;94344.81;5074470;28;20205;-71
2022/09/16 09:06:14;;;;;;;5.00;2.88;;;;;;;23.59;47.29;94336.03;5073976;28;20199;-72
2022/09/16 09:08:50;;;;;;;5.50;3.10;;;;;;;23.58;47.35;94348.56;5075151;28;20177;-72
2022/09/16 09:11:23;;;;;;;5.75;3.10;;;;;;;23.59;47.45;94344.50;5075375;28;20318;-72
2022/09/16 09:14:02;;;;;;;4.53;3.28;;;;;;;23.59;47.19;94347.31;5073775;28;20565;-71
2022/09/16 09:16:37;;;;;;;7.43;2.95;;;;;;;23.61;47.79;94350.47;5074852;28;20300;-71
2022/09/16 09:19:15;;;;;;;4.15;2.90;;;;;;;23.64;47.99;94344.72;5074302;28;20204;-71
2022/09/16 09:21:46;;;;;;;6.70;3.10;;;;;;;23.66;47.77;94350.66;5075200;28;20185;-71
2022/09/16 09:24:25;;;;;;;7.38;3.92;;;;;;;23.68;47.79;94348.22;5075110;28;20196;-71
2022/09/16 09:26:57;;;;;;;5.95;4.10;;;;;;;23.70;47.83;94342.13;5075116;28;20185;-72
2022/09/16 09:29:48;;;;;;;5.75;3.47;;;;;;;23.73;47.82;94335.56;5074103;28;20197;-72
2022/09/16 09:32:27;;;;;;;3.95;2.85;;;;;;;23.73;47.98;94339.16;5071098;28;20220;-72
2022/09/16 09:35:10;;;;;;;10.48;4.15;;;;;;;23.75;47.74;94338.72;5074968;28;20205;-72
2022/09/16 09:37:52;;;;;;;7.45;3.38;;;;;;;23.76;47.75;94343.91;5074251;28;20185;-72
2022/09/16 09:40:22;;;;;;;5.68;3.05;;;;;;;23.80;47.32;94352.22;5075052;28;20193;-72
2022/09/16 09:42:57;;;;;;;8.13;2.92;;;;;;;23.80;47.04;94343.78;5074949;28;20185;-72
2022/09/16 09:45:29;;;;;;;7.70;3.17;;;;;;;23.80;47.54;94357.84;5074733;28;20200;-71
2022/09/16 09:47:59;;;;;;;4.43;3.05;;;;;;;23.78;47.05;94363.13;5074264;28;20219;-72
2022/09/16 09:50:30;;;;;;;6.75;3.20;;;;;;;23.78;47.27;94360.31;5074278;28;20213;-72
2022/09/16 09:53:07;;;;;;;5.60;3.10;;;;;;;23.76;47.42;94360.00;5074231;28;20193;-72
2022/09/16 09:55:35;;;;;;;6.65;2.90;;;;;;;23.74;47.84;94370.91;5074508;28;20212;-72
2022/09/16 09:58:17;;;;;;;6.07;3.00;;;;;;;23.71;48.33;94372.63;5073905;28;20609;-72
2022/09/16 10:00:44;;;;;;;8.75;4.40;;;;;;;23.69;49.07;94391.22;5073578;28;20570;-72
2022/09/16 10:03:15;;;;;;;6.93;3.38;;;;;;;23.64;49.44;94401.00;5074776;28;20578;-71
2022/09/16 10:05:42;;;;;;;10.27;4.45;;;;;;;23.59;49.74;94412.03;5074669;28;20197;-71
2022/09/16 10:08:15;;;;;;;9.27;4.38;;;;;;;23.53;50.61;94415.44;5073771;28;20201;-71
2022/09/16 10:10:47;;;;;;;11.68;5.20;;;;;;;23.46;53.26;94429.75;5073850;28;20524;-72
2022/09/16 10:13:15;;;;;;;9.38;5.18;;;;;;;23.36;55.32;94430.09;5073296;28;20684;-72
2022/09/16 10:15:42;;;;;;;8.00;4.47;;;;;;;23.26;56.35;94441.22;5075351;28;20201;-72
2022/09/16 10:18:15;;;;;;;6.82;3.80;;;;;;;23.22;55.36;94473.53;5077193;28;20193;-72
2022/09/16 10:20:44;;;;;;;8.27;4.20;;;;;;;23.18;55.78;94515.81;5078243;28;20223;-72
2022/09/16 10:23:12;;;;;;;7.28;3.67;;;;;;;23.09;55.03;94538.19;5077833;28;20185;-73
2022/09/16 10:25:39;;;;;;;7.03;2.92;;;;;;;22.91;55.13;94533.06;5078259;28;20205;-72
2022/09/16 10:28:18;;;;;;;7.70;3.05;;;;;;;22.77;56.54;94547.56;5078029;28;20189;-73
2022/09/16 10:30:48;;;;;;;6.35;3.00;;;;;;;22.55;57.20;94564.22;5077284;28;20193;-72
2022/09/16 10:33:21;;;;;;;4.68;2.53;;;;;;;22.27;58.66;94571.38;5078028;28;20185;-72
2022/09/16 10:35:54;;;;;;;6.28;2.60;;;;;;;21.99;60.14;94579.25;5076749;28;20224;-71
2022/09/16 10:38:23;;;;;;;4.20;3.40;;;;;;;21.83;60.74;94582.84;5076439;28;20192;-71
2022/09/16 10:40:53;;;;;;;6.45;3.40;;;;;;;21.74;61.73;94587.47;5077255;28;20197;-71
2022/09/16 10:43:21;;;;;;;4.30;2.80;;;;;;;21.58;62.84;94589.03;5076925;28;20204;-72
2022/09/16 10:45:50;;;;;;;4.57;2.70;;;;;;;21.45;63.69;94588.13;5077666;28;20189;-71
2022/09/16 10:48:20;;;;;;;5.97;2.85;;;;;;;21.39;64.21;94575.88;5076652;28;20209;-71
2022/09/16 10:50:57;;;;;;;3.42;2.38;;;;;;;21.32;65.02;94578.81;5076724;28;20322;-71
2022/09/16 10:53:31;;;;;;;5.75;3.05;;;;;;;21.12;65.58;94588.00;5077491;28;20199;-71
2022/09/16 10:55:59;;;;;;;5.20;2.63;;;;;;;21.00;65.88;94568.28;5077060;28;20215;-71
2022/09/16 10:58:26;;;;;;;2.67;2.20;;;;;;;21.00;66.01;94545.84;5076567;28;20185;-71
2022/09/16 11:01:01;;;;;;;3.10;1.95;;;;;;;20.97;65.71;94544.69;5077412;28;20215;-71
2022/09/16 11:03:45;;;;;;;3.05;1.98;;;;;;;20.98;64.61;94525.84;5076934;28;20208;-71
2022/09/16 11:06:23;;;;;;;4.25;2.40;;;;;;;20.99;64.44;94511.41;5076436;28;20643;-71
2022/09/16 11:08:58;;;;;;;2.65;2.08;;;;;;;21.01;63.58;94497.75;5076241;28;20205;-71
2022/09/16 11:11:49;;;;;;;2.63;2.03;;;;;;;21.09;61.82;94478.75;5076796;28;20181;-71
2022/09/16 11:14:25;;;;;;;5.15;3.30;;;;;;;21.22;62.45;94478.88;5075684;28;20244;-71
2022/09/16 11:17:10;;;;;;;2.22;1.80;;;;;;;21.35;63.45;94448.91;5076862;28;20196;-71
2022/09/16 11:19:46;;;;;;;3.78;2.20;;;;;;;21.51;62.66;94423.69;5076561;28;20201;-71
2022/09/16 11:22:20;;;;;;;2.45;2.22;;;;;;;21.67;62.45;94422.06;5076861;28;20185;-72
2022/09/16 11:25:21;;;;;;;4.18;2.67;;;;;;;21.79;61.85;94402.50;5076326;28;20201;-72
2022/09/16 11:27:52;;;;;;;2.72;1.77;;;;;;;21.87;62.33;94395.47;5074783;28;20230;-72
2022/09/16 11:30:21;;;;;;;3.88;2.45;;;;;;;21.93;61.55;94394.91;5076773;28;20200;-71
2022/09/16 11:33:14;;;;;;;3.33;2.22;;;;;;;22.01;60.41;94380.25;5076774;28;20189;-71
2022/09/16 11:36:04;;;;;;;2.72;1.60;;;;;;;22.09;59.70;94387.25;5076339;28;20280;-71
2022/09/16 11:38:37;;;;;;;2.65;1.60;;;;;;;22.08;59.32;94382.09;5075333;28;20231;-71
2022/09/16 11:41:09;;;;;;;2.97;1.50;;;;;;;22.11;59.20;94386.78;5076731;28;20190;-72
2022/09/16 11:43:48;;;;;;;3.35;1.88;;;;;;;22.21;57.89;94384.94;5076651;28;20223;-71
2022/09/16 11:46:22;;;;;;;2.45;1.60;;;;;;;22.41;58.08;94382.75;5075386;28;20201;-71
2022/09/16 11:48:58;;;;;;;1.73;1.50;;;;;;;22.61;57.78;94371.31;5076234;28;20194;-71